Time;durP1;ratioP1;P1;durP2;ratioP2;P2;SDS_P1;SDS_P2;PMS_P1;PMS_P2;Temp;Humidity;BMP_temperature;BMP_pressure;BME280_temperature;BME280_humidity;BME280_pressure;Samples;Min_cycle;Max_cycle;Signal;HPM_P1;HPM_P2
2021/12/24 00:00:42;;;;;;;24.33;21.98;;;6.60;99.90;;;;;;4158034;28;20198;-56
2021/12/24 00:02:45;;;;;;;23.60;21.45;;;6.50;99.90;;;;;;4163874;28;20394;-56
2021/12/24 00:04:47;;;;;;;;;;;6.50;99.90;;;;;;4160118;28;20037;-57
2021/12/24 00:06:51;;;;;;;19.88;18.13;;;6.30;99.90;;;;;;4162054;28;19931;-56
2021/12/24 00:08:55;;;;;;;23.10;20.83;;;6.50;99.90;;;;;;4160166;28;20077;-56
2021/12/24 00:11:00;;;;;;;22.90;20.65;;;6.60;99.90;;;;;;4155973;28;20124;-56
2021/12/24 00:13:08;;;;;;;21.70;19.60;;;6.60;99.90;;;;;;4149554;28;20050;-56
2021/12/24 00:15:35;;;;;;;22.17;20.00;;;6.60;99.90;;;;;;4163988;28;20041;-56
2021/12/24 00:17:35;;;;;;;19.50;17.90;;;6.60;99.90;;;;;;4153346;28;20481;-56
2021/12/24 00:19:46;;;;;;;19.63;18.00;;;6.90;99.90;;;;;;4159016;28;20038;-56
2021/12/24 00:35:47;;;;;;;18.98;17.48;;;7.00;99.90;;;;;;4161931;28;20048;-56
2021/12/24 00:37:49;;;;;;;20.98;19.20;;;7.00;99.90;;;;;;4160567;28;20051;-57
2021/12/24 00:42:00;;;;;;;18.85;17.02;;;6.90;99.90;;;;;;4157614;28;20375;-57
2021/12/24 00:44:02;;;;;;;18.40;17.10;;;6.90;99.90;;;;;;4161802;28;20041;-57
2021/12/24 00:46:04;;;;;;;20.13;18.10;;;7.00;99.90;;;;;;4149363;28;20437;-57
2021/12/24 00:48:09;;;;;;;17.05;15.85;;;7.00;99.90;;;;;;4163153;28;20085;-57
2021/12/24 00:50:16;;;;;;;18.52;16.92;;;7.10;99.90;;;;;;4160991;28;20488;-57
2021/12/24 00:52:44;;;;;;;18.85;16.92;;;7.20;99.90;;;;;;4162788;28;20041;-56
2021/12/24 00:57:07;;;;;;;18.38;16.55;;;7.10;99.90;;;;;;4162624;28;20057;-58
2021/12/24 00:59:09;;;;;;;17.10;15.80;;;7.20;99.90;;;;;;4157373;28;20501;-56
2021/12/24 01:01:13;;;;;;;17.13;15.68;;;7.20;99.90;;;;;;4153464;28;20034;-56
2021/12/24 01:03:16;;;;;;;16.70;15.60;;;7.20;99.90;;;;;;4153484;28;20040;-56
2021/12/24 01:05:19;;;;;;;15.05;14.05;;;7.20;99.90;;;;;;4161480;28;20049;-56
2021/12/24 01:07:21;;;;;;;13.48;12.65;;;7.20;99.90;;;;;;4159650;28;20037;-57
2021/12/24 01:09:23;;;;;;;16.08;14.73;;;7.20;99.90;;;;;;4161827;28;20042;-56
2021/12/24 01:11:27;;;;;;;16.88;15.57;;;7.20;99.90;;;;;;4154323;28;20069;-57
2021/12/24 01:13:30;;;;;;;17.73;15.93;;;7.20;99.90;;;;;;4157128;28;20442;-56
2021/12/24 01:15:36;;;;;;;15.80;14.43;;;7.20;99.90;;;;;;4153395;28;20528;-56
2021/12/24 01:17:44;;;;;;;16.00;14.80;;;7.20;99.90;;;;;;4161380;28;20039;-57
2021/12/24 01:19:49;;;;;;;17.70;16.33;;;7.20;99.90;;;;;;4158536;28;20064;-56
2021/12/24 01:23:58;;;;;;;15.40;14.27;;;7.10;99.90;;;;;;4157189;28;20064;-57
2021/12/24 01:26:08;;;;;;;17.60;15.55;;;7.20;99.90;;;;;;4156234;28;20041;-56
2021/12/24 01:43:45;;;;;;;13.35;12.60;;;7.20;99.90;;;;;;4146148;28;20037;-56
2021/12/24 01:45:50;;;;;;;11.60;11.00;;;7.30;99.90;;;;;;4161490;28;20041;-56
2021/12/24 01:47:57;;;;;;;12.65;11.60;;;7.50;99.90;;;;;;4161777;28;20041;-57
2021/12/24 01:49:59;;;;;;;9.63;9.23;;;7.50;99.90;;;;;;4162191;28;20092;-56
2021/12/24 01:52:03;;;;;;;8.80;8.50;;;7.70;99.90;;;;;;4161689;28;20046;-56
2021/12/24 01:54:05;;;;;;;8.70;8.30;;;7.70;99.90;;;;;;4160027;28;20044;-56
2021/12/24 01:56:07;;;;;;;8.98;8.50;;;7.70;99.90;;;;;;4162147;28;20565;-57
2021/12/24 01:58:10;;;;;;;8.38;8.18;;;7.70;99.90;;;;;;4160407;28;20064;-57
2021/12/24 02:00:20;;;;;;;10.50;9.93;;;7.70;99.90;;;;;;4162953;28;20068;-58
2021/12/24 02:02:22;;;;;;;11.18;10.48;;;7.60;99.90;;;;;;4159155;28;20132;-59
2021/12/24 02:04:24;;;;;;;11.20;10.43;;;7.60;99.90;;;;;;4161546;28;20072;-59
2021/12/24 02:06:26;;;;;;;9.18;8.93;;;7.40;99.90;;;;;;4160109;28;20044;-59
2021/12/24 02:08:29;;;;;;;10.13;9.63;;;7.60;99.90;;;;;;4152955;28;20529;-59
2021/12/24 02:10:32;;;;;;;12.52;11.73;;;7.50;99.90;;;;;;4159727;28;20087;-59
2021/12/24 02:12:35;;;;;;;13.57;12.57;;;7.40;99.90;;;;;;4163515;28;20073;-58
2021/12/24 02:14:39;;;;;;;10.98;10.43;;;7.30;99.90;;;;;;4162495;28;20040;-59
2021/12/24 02:28:36;;;;;;;12.43;11.32;;;7.50;99.90;;;;;;4162635;28;20041;-59
2021/12/24 02:30:39;;;;;;;12.15;11.55;;;7.40;99.90;;;;;;4155861;28;20038;-59
2021/12/24 02:32:42;;;;;;;13.18;12.20;;;7.40;99.90;;;;;;4164376;28;20116;-59
2021/12/24 02:34:44;;;;;;;10.65;9.77;;;7.40;99.90;;;;;;4160765;28;20848;-59
2021/12/24 02:36:46;;;;;;;11.00;10.20;;;7.40;99.90;;;;;;4164857;28;20071;-59
2021/12/24 02:38:50;;;;;;;11.73;10.95;;;7.40;99.90;;;;;;4162004;28;20048;-59
2021/12/24 02:40:54;;;;;;;10.10;9.65;;;7.30;99.90;;;;;;4166370;28;20485;-59
2021/12/24 02:42:57;;;;;;;9.15;8.80;;;7.30;99.90;;;;;;4162385;28;20489;-59
2021/12/24 02:44:59;;;;;;;10.13;9.73;;;7.40;99.90;;;;;;4165274;28;20095;-60
2021/12/24 02:49:13;;;;;;;11.88;11.27;;;7.40;99.90;;;;;;4159046;28;20076;-59
2021/12/24 02:56:11;;;;;;;9.90;9.43;;;7.30;99.90;;;;;;4158951;28;20049;-59
2021/12/24 02:58:13;;;;;;;;;;;7.30;99.90;;;;;;4146456;28;20096;-59
2021/12/24 03:00:20;;;;;;;10.07;9.63;;;7.30;99.90;;;;;;4159132;28;19921;-59
2021/12/24 03:02:22;;;;;;;10.55;10.23;;;7.30;99.90;;;;;;4161325;28;20453;-59
2021/12/24 03:04:25;;;;;;;10.50;9.88;;;7.30;99.90;;;;;;4156661;28;20085;-58
2021/12/24 03:06:28;;;;;;;;;;;7.30;99.90;;;;;;4162646;28;20060;-58
2021/12/24 03:08:30;;;;;;;10.50;10.00;;;7.30;99.90;;;;;;4142002;28;19952;-58
2021/12/24 03:10:35;;;;;;;10.30;9.65;;;7.30;99.90;;;;;;4162221;28;20620;-58
2021/12/24 03:12:37;;;;;;;10.73;9.90;;;7.30;99.90;;;;;;4156195;28;20095;-58
2021/12/24 03:14:40;;;;;;;9.35;8.93;;;7.30;99.90;;;;;;4161482;28;20041;-58
2021/12/24 03:16:46;;;;;;;;;;;7.30;99.90;;;;;;4159280;28;20045;-58
2021/12/24 03:18:49;;;;;;;8.98;8.68;;;7.30;99.90;;;;;;4161197;28;20468;-58
2021/12/24 03:20:59;;;;;;;9.25;8.93;;;7.40;99.90;;;;;;4158227;28;20091;-58
2021/12/24 03:25:04;;;;;;;10.82;10.23;;;7.40;99.90;;;;;;4152950;28;20058;-58
2021/12/24 03:27:08;;;;;;;11.32;10.57;;;7.30;99.90;;;;;;4151708;28;20042;-59
2021/12/24 03:29:12;;;;;;;9.30;8.80;;;7.30;99.90;;;;;;4159012;28;20065;-59
2021/12/24 03:31:14;;;;;;;12.57;11.85;;;7.40;99.90;;;;;;4160678;28;20037;-58
2021/12/24 03:33:16;;;;;;;10.18;9.73;;;7.30;99.90;;;;;;4162544;28;20534;-59
2021/12/24 03:35:18;;;;;;;9.55;9.05;;;7.30;99.90;;;;;;4162793;28;20038;-59
2021/12/24 03:37:21;;;;;;;10.23;9.70;;;7.40;99.90;;;;;;4162695;28;20044;-58
2021/12/24 03:39:23;;;;;;;10.23;9.88;;;7.50;99.90;;;;;;4163803;28;20497;-59
2021/12/24 03:41:25;;;;;;;10.43;9.82;;;7.60;99.90;;;;;;4160166;28;20110;-58
2021/12/24 03:43:27;;;;;;;6.88;6.60;;;7.60;99.90;;;;;;4158288;28;20037;-59
2021/12/24 03:46:18;;;;;;;8.52;8.13;;;7.70;99.90;;;;;;4155418;28;20044;-59
2021/12/24 03:47:59;;;;;;;8.13;7.80;;;7.80;99.90;;;;;;4161821;28;20049;-58
2021/12/24 03:50:07;;;;;;;8.23;7.95;;;7.70;99.90;;;;;;4160755;28;20300;-59
2021/12/24 03:56:50;;;;;;;10.82;10.23;;;7.70;99.90;;;;;;4147618;28;20042;-59
2021/12/24 03:58:53;;;;;;;9.07;8.77;;;7.60;99.90;;;;;;4159595;28;20045;-59
2021/12/24 04:00:55;;;;;;;10.38;9.90;;;7.60;99.90;;;;;;4163115;28;20651;-59
2021/12/24 04:02:57;;;;;;;8.30;7.90;;;7.50;99.90;;;;;;4160314;28;20121;-59
2021/12/24 04:05:00;;;;;;;5.38;5.18;;;7.50;99.90;;;;;;4162801;28;20064;-60
2021/12/24 04:07:02;;;;;;;9.77;9.27;;;7.60;99.90;;;;;;4162312;28;20042;-59
2021/12/24 04:09:06;;;;;;;11.38;10.55;;;7.60;99.90;;;;;;4156695;28;20141;-59
2021/12/24 04:11:09;;;;;;;4.57;4.47;;;7.40;99.90;;;;;;4159846;28;20559;-57
2021/12/24 04:13:12;;;;;;;;;;;7.50;99.90;;;;;;4163677;28;20060;-59
2021/12/24 04:15:14;;;;;;;4.95;4.75;;;7.70;99.90;;;;;;4158691;28;19921;-58
2021/12/24 04:17:16;;;;;;;5.30;5.20;;;7.80;99.90;;;;;;4155840;28;20038;-58
2021/12/24 04:26:20;;;;;;;6.45;6.25;;;7.70;99.90;;;;;;4162524;28;20038;-58
2021/12/24 04:28:26;;;;;;;4.82;4.72;;;7.70;99.90;;;;;;4160539;28;20033;-59
2021/12/24 04:30:38;;;;;;;6.53;6.22;;;7.70;99.90;;;;;;4162363;28;20045;-59
2021/12/24 04:34:50;;;;;;;6.53;6.32;;;7.70;99.90;;;;;;4157308;28;20042;-58
2021/12/24 05:05:06;;;;;;;6.57;6.38;;;7.60;99.90;;;;;;4171243;28;20049;-58
2021/12/24 05:07:23;;;;;;;7.22;6.93;;;7.50;99.90;;;;;;4176764;28;20095;-58
2021/12/24 05:09:26;;;;;;;7.30;7.10;;;7.50;99.90;;;;;;4174805;28;20052;-58
2021/12/24 05:11:28;;;;;;;6.30;6.03;;;7.50;99.90;;;;;;4167010;28;20057;-59
2021/12/24 05:13:30;;;;;;;5.85;5.65;;;7.50;99.90;;;;;;4172171;28;20110;-59
2021/12/24 05:15:35;;;;;;;5.28;5.18;;;7.50;99.90;;;;;;4167635;28;20046;-59
2021/12/24 05:22:10;;;;;;;2.00;2.00;;;7.80;99.90;;;;;;4176203;28;20140;-59
2021/12/24 05:24:16;;;;;;;2.03;2.03;;;8.10;99.90;;;;;;4177434;28;20053;-59
2021/12/24 05:26:19;;;;;;;1.80;1.80;;;8.10;99.90;;;;;;4175306;28;20460;-59
2021/12/24 05:28:21;;;;;;;1.98;1.98;;;8.20;99.90;;;;;;4176062;28;20691;-59
2021/12/24 05:30:24;;;;;;;1.40;1.40;;;8.20;99.90;;;;;;4174636;28;20186;-59
2021/12/24 05:32:26;;;;;;;;;;;8.30;99.90;;;;;;4161660;28;20053;-59
2021/12/24 05:34:28;;;;;;;1.30;1.30;;;8.30;99.90;;;;;;4173848;28;20018;-59
2021/12/24 05:36:31;;;;;;;1.40;1.40;;;8.30;99.90;;;;;;4161216;28;20390;-59
2021/12/24 05:38:33;;;;;;;;;;;8.40;99.90;;;;;;4158475;28;20501;-59
2021/12/24 05:40:35;;;;;;;1.30;1.30;;;8.40;99.90;;;;;;4154076;28;19927;-59
2021/12/24 05:42:37;;;;;;;1.45;1.45;;;8.50;99.90;;;;;;4159831;28;20064;-59
2021/12/24 05:44:39;;;;;;;1.52;1.52;;;8.50;99.90;;;;;;4148783;28;20068;-58
2021/12/24 05:46:42;;;;;;;1.50;1.50;;;8.60;99.90;;;;;;4158681;28;20564;-59
2021/12/24 05:48:44;;;;;;;1.40;1.40;;;8.60;99.90;;;;;;4164860;28;20096;-58
2021/12/24 05:50:47;;;;;;;4.47;4.28;;;8.50;99.90;;;;;;4162023;28;20033;-58
2021/12/24 05:52:49;;;;;;;2.83;2.63;;;8.60;99.90;;;;;;4165740;28;20108;-59
2021/12/24 05:54:51;;;;;;;2.15;2.15;;;8.60;99.90;;;;;;4163569;28;20048;-59
2021/12/24 05:56:53;;;;;;;3.05;2.95;;;8.60;99.90;;;;;;4161833;28;20045;-59
2021/12/24 05:58:55;;;;;;;2.47;2.47;;;8.60;99.90;;;;;;4160857;28;20037;-58
2021/12/24 06:00:58;;;;;;;1.45;1.45;;;8.70;99.90;;;;;;4156149;28;20096;-58
2021/12/24 06:03:00;;;;;;;3.17;3.08;;;8.70;99.90;;;;;;4157368;28;20502;-59
2021/12/24 06:05:03;;;;;;;1.83;1.83;;;8.70;99.90;;;;;;4164972;28;20137;-59
2021/12/24 06:07:05;;;;;;;2.35;2.35;;;8.70;99.90;;;;;;4162229;28;20038;-59
2021/12/24 06:09:07;;;;;;;1.88;1.88;;;8.60;99.90;;;;;;4159098;28;20537;-59
2021/12/24 06:11:09;;;;;;;1.80;1.80;;;8.60;99.90;;;;;;4153481;28;20045;-59
2021/12/24 06:13:12;;;;;;;1.67;1.67;;;8.60;99.90;;;;;;4160634;28;20045;-59
2021/12/24 06:15:16;;;;;;;1.40;1.40;;;8.60;99.90;;;;;;4154915;28;20366;-58
2021/12/24 06:17:18;;;;;;;2.15;2.15;;;8.70;99.90;;;;;;4164997;28;20038;-59
2021/12/24 06:19:26;;;;;;;6.35;6.15;;;8.60;99.90;;;;;;4161010;28;20029;-59
2021/12/24 06:21:28;;;;;;;6.97;6.68;;;8.50;99.90;;;;;;4165549;28;20039;-58
2021/12/24 06:23:31;;;;;;;3.35;3.25;;;8.30;99.90;;;;;;4158442;28;20041;-58
2021/12/24 06:25:34;;;;;;;4.05;3.78;;;8.40;99.90;;;;;;4165454;28;20413;-58
2021/12/24 06:27:36;;;;;;;;;;;8.30;99.90;;;;;;4164079;28;20044;-59
2021/12/24 06:29:38;;;;;;;3.92;3.72;;;8.40;99.90;;;;;;4164268;28;20472;-58
2021/12/24 06:31:40;;;;;;;3.47;3.47;;;8.40;99.90;;;;;;4162197;28;20037;-58
2021/12/24 06:33:45;;;;;;;3.70;3.50;;;8.30;99.90;;;;;;4164336;28;20037;-58
2021/12/24 06:35:48;;;;;;;4.10;4.00;;;8.40;99.90;;;;;;4159583;28;20049;-58
2021/12/24 06:37:51;;;;;;;5.57;5.47;;;8.30;99.90;;;;;;4158014;28;20030;-58
2021/12/24 06:39:55;;;;;;;3.53;3.53;;;8.30;99.90;;;;;;4161305;28;20040;-58
2021/12/24 06:42:02;;;;;;;7.93;7.63;;;8.30;99.90;;;;;;4158517;28;20045;-59
2021/12/24 06:44:09;;;;;;;8.55;8.15;;;8.00;99.90;;;;;;4151706;28;20057;-58
2021/12/24 06:46:13;;;;;;;9.50;9.18;;;7.70;99.90;;;;;;4163292;28;20068;-58
2021/12/24 06:48:15;;;;;;;17.33;9.63;;;7.60;99.90;;;;;;4156697;28;20038;-58
2021/12/24 06:50:17;;;;;;;6.85;6.65;;;7.60;99.90;;;;;;4165551;28;20034;-58
2021/12/24 06:52:22;;;;;;;7.43;7.18;;;7.40;99.90;;;;;;4160284;28;20148;-59
2021/12/24 06:54:24;;;;;;;;;;;7.50;99.90;;;;;;4166703;28;20041;-59
2021/12/24 06:56:26;;;;;;;4.63;4.53;;;7.90;99.90;;;;;;4161756;28;19929;-59
2021/12/24 06:58:28;;;;;;;6.93;6.63;;;8.10;99.90;;;;;;4163134;28;20065;-59
2021/12/24 07:00:31;;;;;;;4.10;4.00;;;8.00;99.90;;;;;;4161784;28;20099;-60
2021/12/24 07:02:33;;;;;;;4.18;4.07;;;8.00;99.90;;;;;;4159430;28;20041;-60
2021/12/24 07:04:35;;;;;;;5.18;5.03;;;8.10;99.90;;;;;;4161504;28;20042;-60
2021/12/24 07:06:43;;;;;;;;;;;8.10;99.90;;;;;;4162993;28;20025;-60
2021/12/24 07:08:45;;;;;;;5.53;5.32;;;8.00;99.90;;;;;;4161035;28;19971;-59
2021/12/24 07:10:48;;;;;;;5.10;5.00;;;8.10;99.90;;;;;;4161681;28;20095;-59
2021/12/24 07:12:50;;;;;;;;;;;8.30;99.90;;;;;;4164128;28;20485;-58
2021/12/24 07:14:52;;;;;;;4.35;4.25;;;8.40;99.90;;;;;;4163105;28;19929;-59
2021/12/24 07:16:54;;;;;;;4.60;4.38;;;8.40;99.90;;;;;;4159420;28;20104;-59
2021/12/24 07:18:56;;;;;;;4.82;4.63;;;8.40;99.90;;;;;;4161300;28;20071;-59
2021/12/24 07:20:58;;;;;;;4.55;4.45;;;8.50;99.90;;;;;;4163691;28;20033;-59
2021/12/24 07:23:01;;;;;;;4.75;4.65;;;8.50;99.90;;;;;;4157999;28;20490;-59
2021/12/24 07:25:06;;;;;;;4.15;4.05;;;8.50;99.90;;;;;;4164083;28;20091;-59
2021/12/24 07:27:08;;;;;;;4.68;4.45;;;8.60;99.90;;;;;;4164092;28;20080;-58
2021/12/24 07:29:10;;;;;;;10.15;9.60;;;8.60;99.90;;;;;;4158601;28;20061;-58
2021/12/24 07:31:12;;;;;;;5.40;5.20;;;8.40;99.90;;;;;;4162057;28;20040;-59
2021/12/24 07:33:15;;;;;;;5.75;5.65;;;8.40;99.90;;;;;;4158086;28;20048;-59
2021/12/24 07:35:17;;;;;;;4.75;4.65;;;8.50;99.90;;;;;;4159032;28;20041;-59
2021/12/24 07:37:19;;;;;;;6.85;6.65;;;8.50;99.90;;;;;;4155867;28;20483;-59
2021/12/24 07:39:21;;;;;;;7.55;7.38;;;8.50;99.90;;;;;;4161340;28;20037;-58
2021/12/24 07:41:25;;;;;;;8.15;7.85;;;8.50;99.90;;;;;;4157650;28;20069;-59
2021/12/24 07:43:27;;;;;;;5.45;5.35;;;8.40;99.90;;;;;;4160408;28;20516;-58
2021/12/24 07:45:29;;;;;;;4.70;4.60;;;8.40;99.90;;;;;;4163225;28;20057;-58
2021/12/24 07:47:36;;;;;;;5.97;5.78;;;8.50;99.90;;;;;;4160203;28;20056;-59
2021/12/24 07:49:41;;;;;;;4.47;4.38;;;8.50;99.90;;;;;;4154174;28;20060;-59
2021/12/24 07:54:04;;;;;;;9.02;8.43;;;8.40;99.90;;;;;;4163303;28;20088;-58
2021/12/24 07:56:06;;;;;;;7.05;6.55;;;8.40;99.90;;;;;;4159895;28;20132;-58
2021/12/24 07:58:09;;;;;;;4.85;4.65;;;8.50;99.90;;;;;;4162328;28;20060;-58
2021/12/24 08:00:13;;;;;;;5.40;5.20;;;8.50;99.90;;;;;;4152993;28;20038;-58
2021/12/24 08:02:18;;;;;;;3.47;3.38;;;8.50;99.90;;;;;;4161656;28;20045;-58
2021/12/24 08:04:21;;;;;;;4.10;3.88;;;8.60;99.90;;;;;;4162093;28;20046;-58
2021/12/24 08:06:24;;;;;;;5.43;5.22;;;8.60;99.90;;;;;;4156369;28;20064;-58
2021/12/24 08:08:26;;;;;;;8.98;8.48;;;8.60;99.90;;;;;;4157081;28;20057;-58
2021/12/24 08:10:31;;;;;;;13.05;11.77;;;8.50;99.90;;;;;;4163869;28;20592;-60
2021/12/24 08:12:33;;;;;;;8.00;7.80;;;8.60;99.90;;;;;;4157228;28;20050;-58
2021/12/24 08:14:37;;;;;;;5.45;5.35;;;8.60;99.90;;;;;;4156764;28;20079;-57
2021/12/24 08:16:39;;;;;;;9.13;8.68;;;8.70;99.90;;;;;;4159756;28;20037;-57
2021/12/24 08:18:43;;;;;;;9.63;9.02;;;8.60;99.90;;;;;;4157854;28;20050;-57
2021/12/24 08:20:46;;;;;;;6.70;6.45;;;8.70;99.90;;;;;;4156848;28;20045;-57
2021/12/24 08:22:50;;;;;;;7.30;7.00;;;8.70;99.90;;;;;;4163881;28;20041;-57
2021/12/24 08:24:52;;;;;;;6.53;6.40;;;8.60;99.90;;;;;;4160047;28;20100;-60
2021/12/24 08:26:54;;;;;;;9.07;8.18;;;8.60;99.90;;;;;;4156003;28;20506;-58
2021/12/24 08:28:56;;;;;;;4.93;4.72;;;8.70;99.90;;;;;;4156674;28;20486;-57
2021/12/24 08:30:58;;;;;;;5.65;5.40;;;8.80;99.90;;;;;;4162648;28;20033;-58
2021/12/24 08:33:01;;;;;;;6.18;6.07;;;8.90;99.90;;;;;;4159865;28;20042;-58
2021/12/24 08:35:12;;;;;;;5.15;5.03;;;8.90;99.90;;;;;;4162453;28;20067;-57
2021/12/24 08:37:14;;;;;;;5.05;4.93;;;9.00;99.90;;;;;;4160848;28;20073;-57
2021/12/24 08:39:19;;;;;;;5.18;5.07;;;9.10;99.90;;;;;;4163717;28;20042;-57
2021/12/24 08:41:23;;;;;;;4.20;4.07;;;9.10;99.90;;;;;;4161480;28;20049;-57
2021/12/24 08:43:25;;;;;;;4.35;4.25;;;9.20;99.90;;;;;;4159467;28;20053;-57
2021/12/24 08:45:27;;;;;;;5.88;5.68;;;9.30;99.90;;;;;;4156010;28;20084;-57
2021/12/24 08:47:30;;;;;;;6.20;6.03;;;9.30;99.90;;;;;;4162213;28;20095;-59
2021/12/24 08:49:32;;;;;;;5.32;5.22;;;9.20;99.90;;;;;;4159147;28;20065;-57
2021/12/24 08:51:34;;;;;;;6.07;5.95;;;9.30;99.90;;;;;;4162253;28;20512;-57
2021/12/24 08:53:36;;;;;;;4.47;4.18;;;9.30;99.90;;;;;;4161896;28;20045;-58
2021/12/24 08:55:39;;;;;;;5.43;5.32;;;9.30;99.90;;;;;;4161467;28;20045;-56
2021/12/24 08:57:42;;;;;;;4.30;4.20;;;9.40;99.90;;;;;;4162560;28;20045;-58
2021/12/24 08:59:43;;;;;;;;;;;9.40;99.90;;;;;;4161767;28;20044;-58
2021/12/24 09:01:53;;;;;;;4.78;4.55;;;9.40;99.90;;;;;;4162071;28;20032;-58
2021/12/24 09:03:56;;;;;;;4.32;4.07;;;9.50;99.90;;;;;;4161179;28;20051;-57
2021/12/24 09:05:58;;;;;;;3.55;3.35;;;9.60;99.90;;;;;;4162365;28;20577;-57
2021/12/24 09:08:01;;;;;;;4.30;3.95;;;9.60;99.90;;;;;;4161243;28;20068;-57
2021/12/24 09:10:04;;;;;;;4.57;4.07;;;9.70;99.90;;;;;;4152624;28;20072;-56
2021/12/24 09:12:07;;;;;;;4.00;3.90;;;9.80;99.90;;;;;;4160319;28;20136;-57
2021/12/24 09:14:09;;;;;;;4.30;3.70;;;9.80;99.90;;;;;;4162844;28;20045;-56
2021/12/24 09:16:12;;;;;;;3.92;3.83;;;9.90;99.90;;;;;;4159287;28;20033;-56
2021/12/24 09:18:14;;;;;;;3.58;3.45;;;10.00;99.90;;;;;;4161901;28;20042;-56
2021/12/24 09:20:26;;;;;;;3.58;3.47;;;10.10;99.90;;;;;;4160787;28;20103;-56
2021/12/24 09:22:31;;;;;;;4.13;4.03;;;10.10;99.90;;;;;;4161617;28;20064;-57
2021/12/24 09:24:34;;;;;;;3.25;3.15;;;10.30;99.90;;;;;;4161917;28;20544;-57
2021/12/24 09:26:37;;;;;;;3.80;3.42;;;10.40;99.90;;;;;;4161828;28;20038;-57
2021/12/24 09:28:39;;;;;;;5.03;4.20;;;10.50;99.90;;;;;;4162313;28;20080;-57
2021/12/24 09:30:41;;;;;;;4.20;3.80;;;10.70;99.90;;;;;;4158235;28;20112;-57
2021/12/24 09:32:43;;;;;;;4.38;4.03;;;10.80;99.90;;;;;;4161176;28;20614;-56
2021/12/24 09:34:45;;;;;;;4.70;4.32;;;10.90;99.90;;;;;;4148302;28;20104;-56
2021/12/24 09:36:48;;;;;;;4.05;3.83;;;11.00;99.90;;;;;;4159875;28;20442;-57
2021/12/24 09:38:54;;;;;;;4.22;3.65;;;11.20;99.90;;;;;;4162525;28;20064;-57
2021/12/24 09:40:56;;;;;;;3.30;3.17;;;11.60;99.90;;;;;;4158351;28;20034;-57
2021/12/24 09:42:59;;;;;;;3.72;3.50;;;11.60;99.90;;;;;;4162720;28;20037;-57
2021/12/24 09:45:04;;;;;;;3.55;3.30;;;11.70;99.90;;;;;;4157643;28;20045;-57
2021/12/24 09:47:07;;;;;;;3.65;3.35;;;11.80;99.90;;;;;;4155388;28;20046;-57
2021/12/24 09:49:11;;;;;;;3.65;3.45;;;12.10;99.90;;;;;;4156633;28;20038;-57
2021/12/24 09:51:14;;;;;;;2.72;2.25;;;12.10;99.90;;;;;;4154119;28;20053;-57
2021/12/24 09:53:16;;;;;;;5.10;4.63;;;12.00;99.90;;;;;;4158872;28;20038;-57
2021/12/24 09:55:27;;;;;;;8.35;6.57;;;11.90;99.90;;;;;;4161441;28;20409;-57
2021/12/24 09:57:29;;;;;;;3.85;3.55;;;11.90;99.90;;;;;;4159870;28;20097;-57
2021/12/24 09:59:31;;;;;;;2.95;1.88;;;12.10;99.90;;;;;;4158532;28;20046;-57
2021/12/24 10:01:35;;;;;;;174.63;19.55;;;12.20;99.90;;;;;;4160580;28;20044;-56
2021/12/24 10:03:38;;;;;;;3.95;3.75;;;12.30;99.90;;;;;;4161944;28;20132;-57
2021/12/24 10:05:42;;;;;;;5.43;2.83;;;12.50;99.90;;;;;;4158765;28;20584;-57
2021/12/24 10:07:45;;;;;;;5.93;5.40;;;12.40;99.90;;;;;;4158995;28;20049;-57
2021/12/24 10:09:49;;;;;;;9.90;4.07;;;12.40;99.90;;;;;;4160859;28;20088;-57
2021/12/24 10:11:56;;;;;;;4.15;3.72;;;12.30;99.90;;;;;;4161710;28;20556;-56
2021/12/24 10:14:05;;;;;;;2.50;2.40;;;12.20;99.90;;;;;;4160868;28;20040;-57
2021/12/24 10:16:13;;;;;;;2.63;2.42;;;12.30;99.90;;;;;;4153778;28;20173;-57
2021/12/24 10:18:49;;;;;;;2.50;2.30;;;12.30;99.90;;;;;;4160856;28;20048;-57
2021/12/24 10:21:25;;;;;;;4.22;3.55;;;12.30;99.90;;;;;;4152012;28;20510;-57
2021/12/24 10:23:48;;;;;;;8.02;3.40;;;12.30;99.90;;;;;;4148393;28;20510;-57
2021/12/24 10:25:50;;;;;;;2.92;2.70;;;12.20;99.90;;;;;;4152534;28;20048;-57
2021/12/24 10:27:52;;;;;;;3.15;1.30;;;12.10;99.90;;;;;;4158248;28;20087;-57
2021/12/24 10:29:54;;;;;;;1.83;1.73;;;12.10;99.90;;;;;;4160258;28;20045;-57
2021/12/24 10:32:06;;;;;;;3.65;3.33;;;12.10;99.90;;;;;;4159552;28;20409;-57
2021/12/24 10:34:22;;;;;;;3.53;2.42;;;12.10;99.90;;;;;;4160314;28;20033;-57
2021/12/24 10:36:24;;;;;;;4.03;3.45;;;12.10;99.90;;;;;;4155584;28;20038;-57
2021/12/24 10:38:26;;;;;;;5.20;2.20;;;12.30;99.90;;;;;;4164126;28;20041;-60
2021/12/24 10:40:30;;;;;;;2.67;2.58;;;12.30;99.90;;;;;;4163973;28;20597;-59
2021/12/24 10:42:35;;;;;;;1.88;1.88;;;12.20;99.90;;;;;;4163568;28;20041;-59
2021/12/24 10:44:39;;;;;;;3.05;2.72;;;12.20;99.90;;;;;;4158563;28;20557;-60
2021/12/24 10:46:56;;;;;;;2.10;2.00;;;12.30;99.90;;;;;;4157903;28;20045;-59
2021/12/24 10:49:16;;;;;;;3.67;2.08;;;12.30;99.90;;;;;;4154189;28;20041;-59
2021/12/24 10:51:51;;;;;;;2.33;1.80;;;12.30;99.90;;;;;;4151690;28;20453;-60
2021/12/24 10:54:02;;;;;;;1.98;1.73;;;12.30;99.90;;;;;;4155833;28;20069;-60
2021/12/24 10:56:06;;;;;;;1.50;1.40;;;12.30;99.90;;;;;;4148055;28;20050;-60
2021/12/24 10:58:21;;;;;;;3.28;3.05;;;12.20;99.90;;;;;;4161589;28;20096;-60
2021/12/24 11:00:28;;;;;;;2.47;1.30;;;12.10;99.90;;;;;;4153869;28;20140;-57
2021/12/24 11:02:33;;;;;;;2.28;2.08;;;12.00;99.90;;;;;;4164086;28;20120;-57
2021/12/24 11:04:36;;;;;;;1.75;1.65;;;12.00;99.90;;;;;;4152536;28;20103;-57
2021/12/24 11:06:38;;;;;;;1.95;1.83;;;11.90;99.90;;;;;;4167724;28;20037;-54
2021/12/24 11:08:41;;;;;;;2.17;2.08;;;11.80;99.90;;;;;;4161686;28;20042;-53
2021/12/24 11:10:49;;;;;;;1.40;1.40;;;11.80;99.90;;;;;;4163244;28;20041;-53
2021/12/24 11:13:21;;;;;;;1.80;1.70;;;11.80;99.90;;;;;;4162872;28;20065;-53
2021/12/24 11:15:42;;;;;;;2.35;1.73;;;11.80;99.90;;;;;;4162326;28;20061;-54
2021/12/24 11:17:45;;;;;;;3.00;1.73;;;11.80;99.90;;;;;;4161348;28;20045;-54
2021/12/24 11:19:51;;;;;;;;;;;11.80;99.90;;;;;;4157030;28;20088;-54
2021/12/24 11:22:03;;;;;;;1.77;1.67;;;11.80;99.90;;;;;;4159154;28;19961;-54
2021/12/24 11:24:06;;;;;;;1.65;1.25;;;11.90;99.90;;;;;;4163677;28;20084;-54
2021/12/24 11:26:14;;;;;;;1.45;1.45;;;11.90;99.90;;;;;;4163544;28;20041;-54
2021/12/24 11:28:17;;;;;;;1.73;1.63;;;11.90;99.90;;;;;;4164098;28;20056;-54
2021/12/24 11:30:21;;;;;;;1.92;1.85;;;12.00;99.90;;;;;;4162590;28;20444;-55
2021/12/24 11:32:27;;;;;;;2.35;1.95;;;12.00;99.90;;;;;;4160944;28;20045;-54
2021/12/24 11:34:29;;;;;;;1.75;1.65;;;12.00;99.90;;;;;;4163765;28;20076;-54
2021/12/24 11:36:32;;;;;;;1.77;1.67;;;12.00;99.90;;;;;;4159493;28;20509;-54
2021/12/24 11:38:45;;;;;;;2.63;2.45;;;12.00;99.90;;;;;;4161977;28;20037;-54
2021/12/24 11:40:50;;;;;;;2.58;1.73;;;11.90;99.90;;;;;;4156376;28;20095;-54
2021/12/24 11:43:05;;;;;;;2.35;1.73;;;11.90;99.90;;;;;;4158361;28;20401;-55
2021/12/24 11:45:08;;;;;;;1.92;1.83;;;11.90;99.90;;;;;;4157084;28;20053;-54
2021/12/24 11:47:10;;;;;;;2.90;2.80;;;11.90;99.90;;;;;;4163793;28;20471;-55
2021/12/24 11:49:12;;;;;;;;;;;11.90;99.90;;;;;;4151901;28;20506;-54
2021/12/24 11:51:27;;;;;;;13.33;8.20;;;11.90;99.90;;;;;;4161595;28;20246;-55
2021/12/24 11:53:33;;;;;;;7.22;6.63;;;12.00;99.90;;;;;;4152681;28;20353;-55
2021/12/24 11:55:39;;;;;;;6.55;5.68;;;12.00;99.90;;;;;;4161490;28;20440;-54
2021/12/24 11:58:16;;;;;;;2.35;2.25;;;12.00;99.90;;;;;;4154215;28;20049;-54
2021/12/24 12:00:29;;;;;;;2.08;1.98;;;11.80;99.90;;;;;;4162234;28;20061;-55
2021/12/24 12:02:45;;;;;;;2.17;2.08;;;11.80;99.90;;;;;;4156006;28;20088;-55
2021/12/24 12:05:15;;;;;;;2.65;2.55;;;12.00;99.90;;;;;;4149335;28;20042;-54
2021/12/24 12:07:18;;;;;;;3.70;1.95;;;12.20;99.90;;;;;;4158096;28;20437;-54
2021/12/24 12:09:20;;;;;;;2.80;2.60;;;12.20;99.90;;;;;;4163926;28;20049;-54
2021/12/24 12:11:27;;;;;;;3.55;1.73;;;12.20;99.90;;;;;;4162424;28;20464;-55
2021/12/24 12:13:49;;;;;;;6.03;3.25;;;12.30;99.90;;;;;;4160483;28;20041;-54
2021/12/24 12:15:57;;;;;;;4.35;2.25;;;12.30;99.90;;;;;;4161950;28;20448;-55
2021/12/24 12:18:03;;;;;;;3.95;3.78;;;12.30;99.90;;;;;;4151130;28;20045;-54
2021/12/24 12:20:07;;;;;;;5.13;2.85;;;12.30;99.90;;;;;;4163134;28;20453;-53
2021/12/24 12:22:45;;;;;;;3.53;2.83;;;12.30;99.90;;;;;;4161361;28;20037;-55
2021/12/24 12:24:57;;;;;;;9.02;4.60;;;12.20;99.90;;;;;;4160629;28;20131;-54
2021/12/24 12:27:01;;;;;;;4.00;2.85;;;12.10;99.90;;;;;;4159719;28;20037;-54
2021/12/24 12:29:24;;;;;;;3.70;2.88;;;12.10;99.90;;;;;;4151353;28;20038;-55
2021/12/24 12:31:26;;;;;;;;;;;12.00;99.90;;;;;;4160684;28;20061;-55
2021/12/24 12:33:32;;;;;;;3.20;2.88;;;11.90;99.90;;;;;;4160221;28;19921;-55
2021/12/24 12:36:02;;;;;;;3.47;3.17;;;11.90;99.90;;;;;;4159585;28;20095;-55
2021/12/24 12:38:23;;;;;;;3.42;3.22;;;12.00;99.90;;;;;;4160552;28;20061;-53
2021/12/24 12:40:32;;;;;;;4.53;4.13;;;12.00;99.90;;;;;;4161319;28;20110;-55
2021/12/24 12:43:08;;;;;;;3.28;3.08;;;12.00;99.90;;;;;;4157863;28;20100;-55